Time;durP1;ratioP1;P1;durP2;ratioP2;P2;SDS_P1;SDS_P2;PMS_P1;PMS_P2;Temp;Humidity;BMP_temperature;BMP_pressure;BME280_temperature;BME280_humidity;BME280_pressure;Samples;Min_cycle;Max_cycle;Signal;HPM_P1;HPM_P2
2021/10/23 00:00:07;;;;;;;12.02;4.28;;;13.30;99.90;;;;;;5054417;28;20021;-79
2021/10/23 00:02:33;;;;;;;10.13;4.75;;;13.40;99.90;;;;;;5054342;28;20032;-79
2021/10/23 00:04:59;;;;;;;11.85;4.75;;;13.30;99.90;;;;;;5054282;28;20025;-79
2021/10/23 00:07:25;;;;;;;12.48;4.85;;;13.00;99.90;;;;;;5054052;28;20028;-79
2021/10/23 00:09:50;;;;;;;13.20;6.03;;;12.90;99.90;;;;;;5054464;28;20104;-79
2021/10/23 00:12:16;;;;;;;12.80;5.53;;;12.90;99.90;;;;;;5052881;28;20132;-79
2021/10/23 00:14:42;;;;;;;12.30;5.00;;;12.90;99.90;;;;;;5052838;28;20024;-79
2021/10/23 00:17:08;;;;;;;12.77;5.10;;;13.00;99.90;;;;;;5054112;28;20025;-78
2021/10/23 00:19:34;;;;;;;13.93;5.85;;;13.20;99.90;;;;;;5054358;28;20017;-79
2021/10/23 00:22:00;;;;;;;12.88;5.88;;;13.30;99.90;;;;;;5054017;28;20401;-79
2021/10/23 00:24:25;;;;;;;19.05;6.72;;;13.30;99.90;;;;;;5054018;28;20585;-78
2021/10/23 00:26:51;;;;;;;20.40;9.82;;;13.40;99.90;;;;;;5052675;28;20432;-79
2021/10/23 00:29:17;;;;;;;17.83;8.32;;;13.40;99.90;;;;;;5053773;28;20087;-79
2021/10/23 00:31:43;;;;;;;19.02;7.50;;;13.20;99.90;;;;;;5053849;28;20431;-79
2021/10/23 00:34:08;;;;;;;14.93;6.40;;;12.90;99.90;;;;;;5053780;28;20469;-79
2021/10/23 00:36:34;;;;;;;16.27;7.22;;;12.90;99.90;;;;;;5052484;28;20401;-78
2021/10/23 00:39:00;;;;;;;14.35;7.07;;;12.80;99.90;;;;;;5052610;28;20393;-78
2021/10/23 00:41:26;;;;;;;13.15;6.60;;;12.40;99.90;;;;;;5053828;28;20401;-79
2021/10/23 00:43:51;;;;;;;11.57;6.30;;;12.20;99.90;;;;;;5053627;28;20017;-78
2021/10/23 00:46:17;;;;;;;14.27;5.90;;;12.10;99.90;;;;;;5053624;28;20090;-79
2021/10/23 00:48:44;;;;;;;13.10;5.53;;;12.20;99.90;;;;;;5053728;28;20100;-79
2021/10/23 00:51:11;;;;;;;14.65;6.18;;;12.30;99.90;;;;;;5053671;28;20504;-78
2021/10/23 00:53:37;;;;;;;15.55;5.78;;;12.00;99.90;;;;;;5052227;28;20052;-78
2021/10/23 00:56:03;;;;;;;;;;;12.00;99.90;;;;;;5052132;28;20025;-78
2021/10/23 00:58:29;;;;;;;13.38;6.43;;;11.80;99.90;;;;;;5053855;28;20429;-79
2021/10/23 01:00:55;;;;;;;13.38;5.13;;;11.60;99.90;;;;;;5053412;28;20052;-78
2021/10/23 01:03:21;;;;;;;12.57;5.00;;;11.80;99.90;;;;;;5053393;28;20032;-79
2021/10/23 01:05:47;;;;;;;10.85;5.72;;;11.80;99.90;;;;;;5053271;28;20504;-79
2021/10/23 01:08:13;;;;;;;13.93;5.70;;;11.60;99.90;;;;;;5051669;28;20417;-78
2021/10/23 01:10:39;;;;;;;11.65;5.60;;;11.40;99.90;;;;;;5053334;28;20489;-78
2021/10/23 01:13:05;;;;;;;;;;;11.60;99.90;;;;;;5053661;28;20423;-78
2021/10/23 01:15:32;;;;;;;13.02;6.85;;;11.70;99.90;;;;;;5053258;28;19983;-79
2021/10/23 01:18:01;;;;;;;13.57;6.95;;;11.60;99.90;;;;;;5053213;28;20021;-79
2021/10/23 01:20:28;;;;;;;13.32;6.38;;;11.30;99.90;;;;;;5053364;28;20036;-78
2021/10/23 01:22:54;;;;;;;14.50;6.68;;;11.30;99.90;;;;;;5051886;28;20485;-79
2021/10/23 01:25:24;;;;;;;12.70;6.30;;;11.30;99.90;;;;;;5053147;28;20074;-78
2021/10/23 01:27:52;;;;;;;13.00;5.18;;;11.30;99.90;;;;;;5053113;28;20025;-79
2021/10/23 01:30:18;;;;;;;13.52;5.18;;;11.20;99.90;;;;;;5053152;28;20024;-78
2021/10/23 01:32:44;;;;;;;11.70;5.00;;;11.00;99.90;;;;;;5053195;28;20022;-78
2021/10/23 01:35:10;;;;;;;12.93;5.32;;;11.10;99.90;;;;;;5053074;28;20084;-77
2021/10/23 01:37:47;;;;;;;10.43;4.80;;;11.20;99.90;;;;;;5051723;28;20021;-79
2021/10/23 01:40:19;;;;;;;10.73;5.20;;;11.00;99.90;;;;;;5053341;28;20580;-79
2021/10/23 01:42:45;;;;;;;13.07;5.70;;;10.70;99.90;;;;;;5051670;28;20029;-78
2021/10/23 01:45:11;;;;;;;12.93;5.85;;;10.60;99.90;;;;;;5052990;28;20029;-78
2021/10/23 01:47:39;;;;;;;13.82;5.95;;;10.40;99.90;;;;;;5052877;28;20091;-79
2021/10/23 01:50:06;;;;;;;11.10;5.75;;;10.50;99.90;;;;;;5052791;28;20040;-79
2021/10/23 01:52:32;;;;;;;13.63;5.82;;;10.50;99.90;;;;;;5053109;28;20389;-78
2021/10/23 01:54:58;;;;;;;13.48;4.97;;;10.60;99.90;;;;;;5052873;28;20055;-79
2021/10/23 01:57:23;;;;;;;12.93;5.90;;;10.50;99.90;;;;;;5052821;28;20468;-79
2021/10/23 01:59:50;;;;;;;10.77;5.93;;;10.20;99.90;;;;;;5053015;28;20060;-79
2021/10/23 02:02:16;;;;;;;11.82;5.40;;;10.10;99.90;;;;;;5052853;28;20032;-79
2021/10/23 02:04:42;;;;;;;11.52;4.78;;;10.00;99.90;;;;;;5052699;28;20025;-78
2021/10/23 02:07:08;;;;;;;11.20;5.30;;;9.90;99.90;;;;;;5052742;28;20025;-79
2021/10/23 02:09:33;;;;;;;11.98;5.63;;;10.30;99.90;;;;;;5056048;28;20521;-79
2021/10/23 02:11:59;;;;;;;13.20;5.72;;;10.40;99.90;;;;;;5055439;28;20029;-78
2021/10/23 02:14:25;;;;;;;11.90;5.40;;;10.30;99.90;;;;;;5055178;28;20025;-78
2021/10/23 02:16:51;;;;;;;9.50;5.10;;;10.20;99.90;;;;;;5056489;28;20104;-78
2021/10/23 02:19:16;;;;;;;9.73;5.05;;;10.20;99.90;;;;;;5056358;28;20563;-79
2021/10/23 02:21:42;;;;;;;9.95;4.90;;;10.10;99.90;;;;;;5055055;28;20025;-79
2021/10/23 02:24:08;;;;;;;11.18;4.90;;;10.10;99.90;;;;;;5056276;28;20031;-79
2021/10/23 02:26:34;;;;;;;10.23;5.00;;;10.00;99.90;;;;;;5056521;28;20103;-79
2021/10/23 02:29:00;;;;;;;9.63;4.65;;;9.80;99.90;;;;;;5056180;28;20017;-79
2021/10/23 02:31:26;;;;;;;9.32;4.38;;;9.70;99.90;;;;;;5054860;28;20439;-79
2021/10/23 02:33:51;;;;;;;10.30;4.65;;;9.80;99.90;;;;;;5056057;28;20056;-78
2021/10/23 02:36:17;;;;;;;9.63;4.32;;;10.10;99.90;;;;;;5056055;28;20482;-79
2021/10/23 02:38:43;;;;;;;9.50;4.00;;;10.00;99.90;;;;;;5054619;28;20017;-79
2021/10/23 02:41:09;;;;;;;12.25;4.13;;;9.70;99.90;;;;;;5056011;28;20064;-78
2021/10/23 02:43:35;;;;;;;9.50;3.97;;;9.50;99.90;;;;;;5055868;28;20052;-79
2021/10/23 02:46:01;;;;;;;10.23;4.78;;;9.40;99.90;;;;;;5056085;28;20029;-79
2021/10/23 02:48:27;;;;;;;10.70;4.22;;;9.50;99.90;;;;;;5054548;28;20070;-79
2021/10/23 02:50:52;;;;;;;10.20;4.53;;;9.50;99.90;;;;;;5054466;28;20501;-79
2021/10/23 02:53:18;;;;;;;10.13;5.10;;;9.50;99.90;;;;;;5055748;28;20049;-79
2021/10/23 02:55:44;;;;;;;11.30;4.50;;;9.50;99.90;;;;;;5055652;28;20485;-78
2021/10/23 02:58:11;;;;;;;12.25;4.70;;;9.60;99.90;;;;;;5056184;28;20415;-79
2021/10/23 03:00:37;;;;;;;11.00;4.43;;;9.70;99.90;;;;;;5054282;28;20041;-78
2021/10/23 03:03:02;;;;;;;14.70;5.18;;;9.70;99.90;;;;;;5055465;28;20023;-78
2021/10/23 03:05:28;;;;;;;14.70;4.82;;;9.30;99.90;;;;;;5054207;28;20037;-78
2021/10/23 03:07:54;;;;;;;12.80;5.03;;;9.00;99.90;;;;;;5055478;28;20048;-80
2021/10/23 03:10:20;;;;;;;13.90;5.55;;;8.70;99.90;;;;;;5055386;28;20039;-78
2021/10/23 03:12:45;;;;;;;16.35;6.05;;;8.60;99.90;;;;;;5055353;28;20110;-78
2021/10/23 03:15:11;;;;;;;14.63;6.07;;;8.60;99.90;;;;;;5054028;28;20033;-78
2021/10/23 03:17:37;;;;;;;12.65;5.43;;;8.90;99.90;;;;;;5055408;28;20124;-78
2021/10/23 03:20:04;;;;;;;13.88;5.43;;;9.10;99.90;;;;;;5054772;28;20029;-78
2021/10/23 03:22:30;;;;;;;11.60;5.65;;;9.40;99.90;;;;;;5053946;28;20028;-79
2021/10/23 03:24:56;;;;;;;11.35;5.40;;;9.20;99.90;;;;;;5055318;28;20400;-79
2021/10/23 03:27:23;;;;;;;9.55;5.05;;;9.00;99.90;;;;;;5055075;28;20397;-79
2021/10/23 03:29:50;;;;;;;11.00;4.93;;;8.80;99.90;;;;;;5055102;28;20440;-78
2021/10/23 03:32:16;;;;;;;17.65;6.63;;;8.90;99.90;;;;;;5054936;28;20071;-79
2021/10/23 03:34:42;;;;;;;14.07;5.15;;;9.10;99.90;;;;;;5055139;28;20393;-78
2021/10/23 03:37:08;;;;;;;17.23;5.45;;;9.10;99.90;;;;;;5053652;28;20029;-78
2021/10/23 03:39:34;;;;;;;17.38;5.53;;;9.30;99.90;;;;;;5053561;28;20033;-79
2021/10/23 03:42:00;;;;;;;13.88;5.00;;;9.30;99.90;;;;;;5054863;28;20028;-78
2021/10/23 03:44:26;;;;;;;11.48;4.97;;;9.20;99.90;;;;;;5054778;28;20104;-78
2021/10/23 03:46:52;;;;;;;13.10;4.95;;;9.20;99.90;;;;;;5055160;28;20096;-79
2021/10/23 03:49:17;;;;;;;13.52;5.03;;;9.30;99.90;;;;;;5053298;28;20095;-78
2021/10/23 03:51:43;;;;;;;13.85;5.25;;;9.30;99.90;;;;;;5054746;28;20032;-79
2021/10/23 03:54:09;;;;;;;12.68;4.70;;;9.20;99.90;;;;;;5054544;28;20028;-79
2021/10/23 03:56:35;;;;;;;12.18;4.78;;;9.00;99.90;;;;;;5053297;28;20025;-78
2021/10/23 03:59:01;;;;;;;9.85;4.32;;;8.70;99.90;;;;;;5054749;28;20071;-79
2021/10/23 04:01:26;;;;;;;11.65;4.72;;;8.70;99.90;;;;;;5054563;28;20021;-79
2021/10/23 04:03:53;;;;;;;12.18;4.50;;;8.70;99.90;;;;;;5054337;28;20083;-79
2021/10/23 04:06:19;;;;;;;10.48;4.32;;;8.80;99.90;;;;;;5054419;28;20013;-79
2021/10/23 04:08:45;;;;;;;9.88;4.35;;;9.10;99.90;;;;;;5054038;28;20052;-78
2021/10/23 04:11:11;;;;;;;10.88;4.47;;;9.20;99.90;;;;;;5052946;28;20429;-78
2021/10/23 04:13:37;;;;;;;11.57;4.78;;;9.00;99.90;;;;;;5054317;28;20025;-78
2021/10/23 04:16:03;;;;;;;10.73;4.10;;;9.00;99.90;;;;;;5054159;28;20025;-79
2021/10/23 04:18:28;;;;;;;9.77;3.67;;;8.80;99.90;;;;;;5052857;28;20025;-79
2021/10/23 04:20:54;;;;;;;12.60;4.20;;;8.70;99.90;;;;;;5054085;28;20045;-79
2021/10/23 04:23:20;;;;;;;6.78;3.20;;;8.60;99.90;;;;;;5054183;28;20508;-79
2021/10/23 04:25:46;;;;;;;8.27;3.90;;;8.40;99.90;;;;;;5054014;28;20501;-78
2021/10/23 04:28:11;;;;;;;8.15;3.75;;;8.30;99.90;;;;;;5054085;28;20082;-79
2021/10/23 04:30:37;;;;;;;11.55;4.35;;;8.20;99.90;;;;;;5053032;28;20522;-78
2021/10/23 04:33:03;;;;;;;8.07;3.53;;;8.10;99.90;;;;;;5054316;28;20044;-79
2021/10/23 04:35:29;;;;;;;7.25;3.40;;;8.20;99.90;;;;;;5052557;28;20040;-78
2021/10/23 04:37:55;;;;;;;8.55;3.80;;;8.50;99.90;;;;;;5053691;28;20020;-77
2021/10/23 04:40:21;;;;;;;9.38;4.07;;;8.40;99.90;;;;;;5053801;28;20025;-78
2021/10/23 04:42:46;;;;;;;8.43;4.20;;;8.20;99.90;;;;;;5052394;28;20393;-78
2021/10/23 04:45:12;;;;;;;8.93;3.95;;;8.00;99.90;;;;;;5053579;28;20043;-79
2021/10/23 04:47:38;;;;;;;8.35;3.65;;;8.10;99.90;;;;;;5053769;28;20056;-79
2021/10/23 04:50:04;;;;;;;9.77;3.80;;;7.90;99.90;;;;;;5052200;28;20033;-78
2021/10/23 04:52:30;;;;;;;9.13;3.75;;;7.80;99.90;;;;;;5053663;28;20029;-79
2021/10/23 04:54:56;;;;;;;8.48;3.85;;;7.80;99.90;;;;;;5053499;28;20380;-78
2021/10/23 04:57:21;;;;;;;9.32;4.00;;;8.00;99.90;;;;;;5053437;28;20029;-79
2021/10/23 04:59:47;;;;;;;7.00;3.65;;;7.90;99.90;;;;;;5053447;28;20029;-78
2021/10/23 05:02:13;;;;;;;6.47;2.97;;;7.90;99.90;;;;;;5053478;28;20120;-78
2021/10/23 05:04:39;;;;;;;6.65;2.97;;;8.10;99.90;;;;;;5053341;28;20039;-78
2021/10/23 05:07:04;;;;;;;7.75;3.35;;;8.20;99.90;;;;;;5052053;28;20471;-78
2021/10/23 05:09:30;;;;;;;6.25;2.85;;;8.30;99.90;;;;;;5051547;28;20079;-78
2021/10/23 05:11:56;;;;;;;6.53;3.05;;;8.30;99.90;;;;;;5053332;28;20107;-78
2021/10/23 05:14:22;;;;;;;6.97;3.10;;;8.20;99.90;;;;;;5053223;28;20098;-79
2021/10/23 05:16:48;;;;;;;6.38;2.85;;;8.00;99.90;;;;;;5051968;28;20087;-79
2021/10/23 05:19:14;;;;;;;8.40;3.13;;;7.90;99.90;;;;;;5053143;28;20025;-78
2021/10/23 05:21:39;;;;;;;9.65;3.10;;;7.70;99.90;;;;;;5053520;28;20029;-78
2021/10/23 05:24:05;;;;;;;6.30;2.92;;;7.60;99.90;;;;;;5051849;28;20025;-79
2021/10/23 05:26:31;;;;;;;6.10;2.90;;;7.50;99.90;;;;;;5053204;28;20108;-79
2021/10/23 05:28:57;;;;;;;5.75;2.53;;;7.60;99.90;;;;;;5053243;28;20444;-79
2021/10/23 05:31:23;;;;;;;6.07;2.50;;;7.70;99.90;;;;;;5053092;28;20116;-79
2021/10/23 05:33:49;;;;;;;9.98;3.10;;;7.70;99.90;;;;;;5053153;28;20108;-79
2021/10/23 05:36:15;;;;;;;6.38;2.88;;;7.80;99.90;;;;;;5052856;28;20064;-79
2021/10/23 05:38:40;;;;;;;6.32;2.70;;;7.70;99.90;;;;;;5053146;28;20021;-79
2021/10/23 05:41:06;;;;;;;7.00;2.90;;;7.40;99.90;;;;;;5052947;28;20032;-79
2021/10/23 05:43:32;;;;;;;6.80;2.92;;;7.20;99.90;;;;;;5056924;28;20033;-78
2021/10/23 05:45:58;;;;;;;14.52;3.40;;;7.10;99.90;;;;;;5057207;28;20040;-78
2021/10/23 05:48:23;;;;;;;7.22;2.70;;;7.10;99.90;;;;;;5056931;28;20468;-79
2021/10/23 05:50:49;;;;;;;5.95;2.17;;;7.00;99.90;;;;;;5056825;28;20032;-78
2021/10/23 05:53:15;;;;;;;5.25;2.30;;;7.10;99.90;;;;;;5056861;28;20036;-78
2021/10/23 05:55:41;;;;;;;7.43;2.50;;;7.40;99.90;;;;;;5056966;28;20510;-79
2021/10/23 05:58:07;;;;;;;6.32;2.38;;;7.60;99.90;;;;;;5055525;28;20021;-78
2021/10/23 06:00:35;;;;;;;6.32;2.50;;;7.70;99.90;;;;;;5056717;28;20029;-78
2021/10/23 06:03:01;;;;;;;5.55;2.28;;;7.70;99.90;;;;;;5056848;28;20025;-79
2021/10/23 06:05:28;;;;;;;6.70;2.58;;;7.50;99.90;;;;;;5056666;28;20044;-79
2021/10/23 06:07:54;;;;;;;8.40;2.60;;;7.40;99.90;;;;;;5055155;28;20041;-79
2021/10/23 06:10:19;;;;;;;7.05;2.50;;;7.20;99.90;;;;;;5055209;28;20465;-78
2021/10/23 06:12:46;;;;;;;9.35;3.20;;;7.40;99.90;;;;;;5056521;28;20091;-78
2021/10/23 06:15:12;;;;;;;7.10;2.40;;;7.60;99.90;;;;;;5056463;28;20025;-79
2021/10/23 06:17:39;;;;;;;5.93;2.67;;;7.70;99.90;;;;;;5056590;28;20449;-78
2021/10/23 06:20:06;;;;;;;6.63;2.65;;;7.60;99.90;;;;;;5055167;28;20386;-78
2021/10/23 06:22:32;;;;;;;6.38;2.90;;;7.50;99.90;;;;;;5056342;28;20429;-79
2021/10/23 06:24:57;;;;;;;8.45;3.53;;;7.20;99.90;;;;;;5054989;28;20135;-79
2021/10/23 06:27:23;;;;;;;11.55;4.25;;;7.30;99.90;;;;;;5054951;28;20040;-79
2021/10/23 06:29:49;;;;;;;9.27;4.43;;;7.40;99.90;;;;;;5056147;28;20017;-78
2021/10/23 06:32:15;;;;;;;9.85;3.88;;;7.10;99.90;;;;;;5056152;28;20082;-78
2021/10/23 06:34:41;;;;;;;7.82;3.63;;;7.20;99.90;;;;;;5054820;28;20033;-79
2021/10/23 06:37:10;;;;;;;7.25;2.83;;;7.30;99.90;;;;;;5056084;28;20481;-79
2021/10/23 06:39:37;;;;;;;8.82;3.92;;;7.20;99.90;;;;;;5056037;28;20039;-78
2021/10/23 06:42:03;;;;;;;8.82;3.58;;;7.00;99.90;;;;;;5055948;28;20029;-79
2021/10/23 06:44:29;;;;;;;;;;;6.80;99.90;;;;;;5055005;28;20558;-78
2021/10/23 06:46:55;;;;;;;10.55;3.25;;;7.00;99.90;;;;;;5055911;28;20051;-79
2021/10/23 06:49:20;;;;;;;7.95;2.95;;;6.80;99.90;;;;;;5054489;28;20082;-78
2021/10/23 06:51:46;;;;;;;19.88;4.85;;;6.90;99.90;;;;;;5056029;28;20103;-79
2021/10/23 06:54:12;;;;;;;6.55;2.83;;;6.80;99.90;;;;;;5054947;28;20032;-78
2021/10/23 06:56:38;;;;;;;7.53;2.60;;;6.80;99.90;;;;;;5055694;28;20092;-79
2021/10/23 06:59:03;;;;;;;8.35;2.97;;;7.00;99.90;;;;;;5054414;28;20120;-79
2021/10/23 07:01:29;;;;;;;5.72;2.72;;;7.20;99.90;;;;;;5055957;28;20017;-78
2021/10/23 07:03:55;;;;;;;8.48;3.58;;;7.20;99.90;;;;;;5055799;28;20029;-78
2021/10/23 07:06:21;;;;;;;10.48;3.17;;;7.30;99.90;;;;;;5055512;28;20021;-78
2021/10/23 07:08:47;;;;;;;;;;;7.40;99.90;;;;;;5055725;28;20045;-79
2021/10/23 07:11:13;;;;;;;12.80;3.90;;;7.70;99.90;;;;;;5055453;28;20422;-78
2021/10/23 07:13:39;;;;;;;15.77;4.00;;;7.90;99.90;;;;;;5054135;28;20021;-79
2021/10/23 07:16:05;;;;;;;11.93;4.47;;;8.00;99.90;;;;;;5055342;28;20389;-79
2021/10/23 07:18:31;;;;;;;13.30;5.53;;;7.90;99.90;;;;;;5055249;28;20032;-79
2021/10/23 07:20:56;;;;;;;21.48;8.23;;;8.40;99.90;;;;;;5053934;28;20036;-79
2021/10/23 07:23:22;;;;;;;17.60;6.35;;;9.10;99.90;;;;;;5055210;28;20047;-79
2021/10/23 07:25:48;;;;;;;13.10;6.32;;;9.90;98.30;;;;;;5055404;28;20033;-79
2021/10/23 07:28:14;;;;;;;10.68;4.13;;;10.70;96.50;;;;;;5055299;28;20024;-78
2021/10/23 07:30:41;;;;;;;9.00;3.50;;;11.40;94.20;;;;;;5053635;28;20033;-79
2021/10/23 07:33:07;;;;;;;10.68;3.85;;;12.00;92.60;;;;;;5054480;28;20436;-78
2021/10/23 07:35:33;;;;;;;8.80;3.25;;;12.60;91.20;;;;;;5054993;28;20033;-79
2021/10/23 07:37:59;;;;;;;9.27;3.28;;;13.20;90.00;;;;;;5054815;28;20021;-80
2021/10/23 07:40:25;;;;;;;8.38;3.60;;;13.70;87.40;;;;;;5054889;28;20443;-79
2021/10/23 07:42:51;;;;;;;8.65;3.65;;;14.20;85.20;;;;;;5055113;28;20021;-79
2021/10/23 07:45:17;;;;;;;8.77;3.83;;;14.50;82.70;;;;;;5053464;28;20029;-78
2021/10/23 07:47:43;;;;;;;8.52;3.88;;;14.70;82.70;;;;;;5055014;28;20079;-78
2021/10/23 07:50:10;;;;;;;10.68;4.47;;;15.20;79.70;;;;;;5054756;28;20064;-79
2021/10/23 07:52:37;;;;;;;10.80;4.43;;;15.70;77.50;;;;;;5053330;28;20485;-79
2021/10/23 07:55:06;;;;;;;10.63;4.40;;;16.20;75.60;;;;;;5053320;28;20025;-80
2021/10/23 07:57:32;;;;;;;9.93;4.30;;;16.30;75.00;;;;;;5054539;28;20529;-79
2021/10/23 07:59:57;;;;;;;37.47;6.35;;;17.40;73.00;;;;;;5054828;28;20056;-79
2021/10/23 08:02:24;;;;;;;14.18;4.32;;;17.90;69.10;;;;;;5053200;28;20485;-79
2021/10/23 08:04:50;;;;;;;11.75;4.20;;;17.70;71.10;;;;;;5053136;28;20045;-79
2021/10/23 08:07:16;;;;;;;10.15;4.30;;;18.30;69.00;;;;;;5054689;28;20051;-79
2021/10/23 08:09:42;;;;;;;14.60;4.90;;;19.00;67.40;;;;;;5052841;28;20053;-79
2021/10/23 08:12:08;;;;;;;10.25;5.60;;;19.10;65.90;;;;;;5054236;28;20028;-79
2021/10/23 08:14:36;;;;;;;12.98;5.68;;;19.60;64.90;;;;;;5054211;28;20047;-79
2021/10/23 08:17:03;;;;;;;11.07;5.07;;;20.10;63.90;;;;;;5052897;28;20017;-80
2021/10/23 08:19:29;;;;;;;8.80;4.70;;;20.70;63.30;;;;;;5054346;28;20032;-79
2021/10/23 08:21:54;;;;;;;9.43;5.47;;;21.20;61.80;;;;;;5054072;28;20017;-79
2021/10/23 08:24:20;;;;;;;16.02;10.52;;;21.40;60.60;;;;;;5053969;28;20036;-79
2021/10/23 08:26:47;;;;;;;10.02;5.15;;;21.80;60.40;;;;;;5052661;28;20025;-79
2021/10/23 08:29:13;;;;;;;13.43;5.93;;;21.70;59.90;;;;;;5053971;28;20023;-80
2021/10/23 08:31:40;;;;;;;9.95;5.82;;;22.50;58.80;;;;;;5053856;28;20027;-79
2021/10/23 08:34:06;;;;;;;9.95;5.20;;;22.40;58.60;;;;;;5053867;28;20023;-79
2021/10/23 08:36:32;;;;;;;9.25;4.60;;;22.40;59.50;;;;;;5053824;28;20059;-80
2021/10/23 08:38:58;;;;;;;7.57;3.70;;;23.10;57.50;;;;;;5053654;28;20078;-79
2021/10/23 08:41:26;;;;;;;9.30;4.00;;;22.80;57.80;;;;;;5018911;28;20072;-80
2021/10/23 08:43:52;;;;;;;9.70;4.20;;;23.60;57.10;;;;;;5034067;28;20100;-80
2021/10/23 08:46:21;;;;;;;10.32;4.60;;;24.80;55.60;;;;;;5032672;28;20025;-80
2021/10/23 08:48:50;;;;;;;21.40;4.68;;;25.40;54.40;;;;;;5049277;28;20033;-80
2021/10/23 08:51:16;;;;;;;16.13;4.63;;;24.40;55.10;;;;;;5033778;28;20053;-80
2021/10/23 08:53:43;;;;;;;7.75;4.00;;;24.50;56.00;;;;;;5034110;28;20489;-79
2021/10/23 08:56:09;;;;;;;9.52;3.72;;;24.10;55.20;;;;;;5034006;28;20040;-79
2021/10/23 08:58:36;;;;;;;10.88;3.90;;;24.20;55.60;;;;;;5048925;28;20083;-80
2021/10/23 09:01:03;;;;;;;8.98;3.50;;;25.30;55.20;;;;;;5033453;28;20475;-80
2021/10/23 09:03:29;;;;;;;9.15;3.63;;;26.90;53.40;;;;;;5033543;28;20026;-80
2021/10/23 09:05:55;;;;;;;10.60;3.70;;;27.10;52.40;;;;;;5048981;28;20051;-80
2021/10/23 09:08:22;;;;;;;34.53;5.65;;;26.30;52.70;;;;;;5033207;28;20050;-80
2021/10/23 09:10:52;;;;;;;10.13;3.10;;;26.30;53.00;;;;;;5033344;28;20025;-80
2021/10/23 09:13:32;;;;;;;8.23;3.25;;;25.90;54.10;;;;;;5033314;28;20506;-80
2021/10/23 09:15:58;;;;;;;11.40;3.95;;;26.60;53.30;;;;;;5033448;28;20049;-80
2021/10/23 09:18:41;;;;;;;8.38;3.15;;;27.40;51.50;;;;;;5031916;28;20130;-81
2021/10/23 09:21:23;;;;;;;7.53;3.20;;;28.00;51.20;;;;;;5033355;28;20025;-81
2021/10/23 09:23:49;;;;;;;8.60;3.00;;;27.30;51.80;;;;;;5033678;28;20299;-80
2021/10/23 09:26:37;;;;;;;8.90;3.30;;;26.70;51.80;;;;;;5032009;28;20044;-80
2021/10/23 09:29:25;;;;;;;8.07;3.30;;;27.00;52.00;;;;;;5033506;28;20029;-80
2021/10/23 09:31:55;;;;;;;8.18;3.30;;;26.60;51.50;;;;;;5028488;28;20479;-80
2021/10/23 09:34:23;;;;;;;10.23;3.50;;;27.60;52.50;;;;;;5013717;28;20029;-80
2021/10/23 09:36:57;;;;;;;13.43;3.50;;;27.60;51.90;;;;;;5012697;28;20022;-80
2021/10/23 09:39:34;;;;;;;8.57;3.22;;;27.20;52.10;;;;;;5028697;28;20034;-80
2021/10/23 09:42:07;;;;;;;16.73;3.70;;;27.30;51.50;;;;;;5028115;28;20103;-80
2021/10/23 09:44:34;;;;;;;;;;;27.50;51.70;;;;;;5025337;28;20068;-80
2021/10/23 09:47:00;;;;;;;9.60;3.63;;;27.30;51.60;;;;;;5032274;28;19905;-80
2021/10/23 09:49:26;;;;;;;8.00;2.90;;;27.70;51.80;;;;;;5032894;28;20033;-80
2021/10/23 09:52:08;;;;;;;9.02;3.45;;;27.20;51.50;;;;;;5032888;28;20017;-80
2021/10/23 09:54:37;;;;;;;8.07;3.00;;;26.00;51.70;;;;;;5032154;28;20028;-80
2021/10/23 09:57:10;;;;;;;9.43;3.10;;;26.70;52.00;;;;;;5033274;28;20103;-80
2021/10/23 09:59:38;;;;;;;10.90;3.30;;;26.70;51.80;;;;;;5033190;28;20108;-80
2021/10/23 10:02:08;;;;;;;14.48;3.50;;;25.70;52.30;;;;;;5032813;28;20271;-80
2021/10/23 10:04:35;;;;;;;13.23;3.22;;;26.10;52.50;;;;;;5033408;28;20033;-80
2021/10/23 10:07:01;;;;;;;8.65;3.15;;;27.50;51.40;;;;;;5032331;28;20112;-79
2021/10/23 10:09:27;;;;;;;12.70;3.35;;;27.40;50.40;;;;;;5031164;28;20048;-80
2021/10/23 10:11:55;;;;;;;24.17;3.80;;;27.70;50.00;;;;;;5032593;28;20022;-80
2021/10/23 10:14:27;;;;;;;7.68;2.72;;;28.10;49.10;;;;;;5032444;28;20025;-80
2021/10/23 10:16:55;;;;;;;8.05;2.88;;;27.30;49.70;;;;;;5048020;28;20425;-80
2021/10/23 10:19:21;;;;;;;7.88;3.20;;;27.70;50.30;;;;;;5032590;28;20034;-80
2021/10/23 10:21:49;;;;;;;7.07;2.78;;;27.20;50.20;;;;;;5032034;28;20556;-80
2021/10/23 10:24:28;;;;;;;11.10;3.20;;;26.90;49.70;;;;;;5032711;28;20025;-80
2021/10/23 10:27:06;;;;;;;7.22;3.10;;;27.80;49.00;;;;;;5033439;28;20018;-80
2021/10/23 10:29:55;;;;;;;6.85;3.00;;;29.20;47.70;;;;;;5035286;28;20026;-80
2021/10/23 10:32:34;;;;;;;10.27;2.72;;;28.60;46.00;;;;;;5036468;28;20022;-80
2021/10/23 10:35:24;;;;;;;6.65;2.60;;;28.70;46.60;;;;;;5036563;28;20025;-80
2021/10/23 10:43:18;;;;;;;6.70;2.60;;;29.60;45.90;;;;;;5036343;28;20033;-80
2021/10/23 10:45:46;;;;;;;5.88;2.15;;;30.00;45.50;;;;;;5036518;28;20025;-80
2021/10/23 10:48:25;;;;;;;11.73;3.13;;;28.70;43.30;;;;;;5035053;28;20092;-79
2021/10/23 10:50:52;;;;;;;13.93;3.28;;;30.30;43.80;;;;;;5034956;28;20079;-79
2021/10/23 10:53:23;;;;;;;5.07;2.03;;;31.40;42.70;;;;;;5036483;28;20017;-80
2021/10/23 10:55:59;;;;;;;6.25;2.33;;;30.30;42.40;;;;;;5034976;28;20026;-78
2021/10/23 10:58:50;;;;;;;5.07;2.20;;;30.90;42.80;;;;;;5032688;28;20124;-79
2021/10/23 11:01:20;;;;;;;4.60;1.50;;;30.70;43.20;;;;;;5033931;28;20053;-79
2021/10/23 11:03:47;;;;;;;3.55;1.35;;;28.60;42.10;;;;;;5033980;28;20107;-78
2021/10/23 11:06:34;;;;;;;8.75;2.00;;;25.30;45.00;;;;;;5033892;28;20036;-79
2021/10/23 11:09:09;;;;;;;5.60;1.90;;;24.50;49.30;;;;;;5033703;28;20558;-79
2021/10/23 11:11:50;;;;;;;11.65;1.70;;;27.50;46.40;;;;;;5035329;28;20025;-79
2021/10/23 11:14:27;;;;;;;4.97;1.60;;;28.50;43.40;;;;;;5034227;28;20466;-79
2021/10/23 11:16:56;;;;;;;7.63;1.60;;;24.60;46.90;;;;;;5033908;28;20030;-79
2021/10/23 11:19:42;;;;;;;8.93;1.88;;;23.20;49.70;;;;;;5034029;28;20057;-79
2021/10/23 11:22:08;;;;;;;14.25;1.92;;;22.70;51.30;;;;;;5033771;28;20397;-79
2021/10/23 11:24:38;;;;;;;10.02;2.17;;;20.00;54.60;;;;;;5034008;28;20032;-78
2021/10/23 11:27:04;;;;;;;7.40;2.13;;;19.70;57.30;;;;;;5035508;28;20029;-79
2021/10/23 11:29:30;;;;;;;6.38;1.90;;;19.30;58.40;;;;;;5035328;28;20052;-78
2021/10/23 11:32:00;;;;;;;5.47;1.90;;;19.60;58.80;;;;;;5035268;28;20065;-79
2021/10/23 11:34:34;;;;;;;7.30;2.20;;;19.80;59.10;;;;;;5035211;28;20482;-78
2021/10/23 11:37:04;;;;;;;7.75;2.47;;;19.10;59.80;;;;;;5033482;28;20404;-79
2021/10/23 11:39:37;;;;;;;6.68;2.25;;;19.00;60.50;;;;;;5034507;28;20371;-78
2021/10/23 11:42:22;;;;;;;18.58;3.17;;;18.80;62.70;;;;;;5035019;28;20433;-79
2021/10/23 11:44:50;;;;;;;8.02;2.40;;;20.40;61.30;;;;;;5035244;28;20026;-78
2021/10/23 11:47:32;;;;;;;7.80;2.33;;;21.20;55.80;;;;;;5034794;28;20076;-79
2021/10/23 11:50:05;;;;;;;7.68;2.08;;;21.10;57.00;;;;;;5034865;28;20015;-79
2021/10/23 11:52:33;;;;;;;6.65;2.30;;;21.50;57.70;;;;;;5035037;28;20108;-79
2021/10/23 11:55:03;;;;;;;8.20;2.30;;;25.30;51.80;;;;;;5034632;28;20014;-79
2021/10/23 11:57:44;;;;;;;7.13;1.90;;;29.00;46.50;;;;;;5034639;28;20019;-79
2021/10/23 12:00:19;;;;;;;9.70;2.05;;;28.30;45.30;;;;;;5033352;28;20453;-79
2021/10/23 12:02:50;;;;;;;5.75;1.80;;;23.50;49.70;;;;;;5034944;28;20017;-79
2021/10/23 12:05:22;;;;;;;6.18;1.85;;;22.90;52.30;;;;;;5032987;28;20025;-79
2021/10/23 12:08:06;;;;;;;9.98;2.10;;;22.70;52.60;;;;;;5032998;28;20560;-79
2021/10/23 12:10:32;;;;;;;12.48;1.98;;;25.10;51.10;;;;;;5034466;28;20025;-79
2021/10/23 12:13:14;;;;;;;5.43;1.88;;;25.50;47.10;;;;;;5034607;28;20025;-79
2021/10/23 12:15:40;;;;;;;5.45;1.83;;;28.70;45.50;;;;;;5032791;28;20029;-79
2021/10/23 12:18:07;;;;;;;5.70;2.00;;;31.30;43.00;;;;;;5034352;28;20044;-79
2021/10/23 12:20:36;;;;;;;5.63;1.60;;;30.10;40.50;;;;;;5034129;28;20026;-79
2021/10/23 12:23:04;;;;;;;5.90;1.83;;;24.90;45.50;;;;;;5049553;28;20026;-79
2021/10/23 12:25:30;;;;;;;5.93;1.65;;;24.20;49.30;;;;;;5049546;28;20025;-78
2021/10/23 12:28:00;;;;;;;8.10;1.95;;;24.10;48.30;;;;;;5034073;28;20071;-78
2021/10/23 12:30:26;;;;;;;3.97;1.42;;;23.10;49.90;;;;;;5032753;28;20029;-79
2021/10/23 12:32:58;;;;;;;5.53;1.83;;;22.20;52.00;;;;;;5034279;28;20497;-79
2021/10/23 12:35:30;;;;;;;5.53;1.60;;;22.00;52.90;;;;;;5032446;28;20045;-78
2021/10/23 12:37:58;;;;;;;8.00;1.90;;;21.60;52.50;;;;;;5032599;28;20045;-78
2021/10/23 12:40:28;;;;;;;5.90;1.70;;;20.80;55.00;;;;;;5048971;28;20116;-79
2021/10/23 12:43:04;;;;;;;6.50;2.08;;;21.00;55.10;;;;;;5033944;28;20508;-78
2021/10/23 12:45:51;;;;;;;6.90;1.92;;;20.90;56.20;;;;;;5033881;28;20018;-79
2021/10/23 12:48:19;;;;;;;6.65;1.80;;;20.30;55.60;;;;;;5033632;28;20029;-79
2021/10/23 12:50:47;;;;;;;13.73;1.95;;;20.30;55.70;;;;;;5033266;28;20045;-78
2021/10/23 12:53:13;;;;;;;7.18;2.00;;;20.10;57.90;;;;;;5031857;28;20036;-79
2021/10/23 12:55:39;;;;;;;7.90;1.90;;;19.60;58.30;;;;;;5033490;28;20100;-78